Time;durP1;ratioP1;P1;durP2;ratioP2;P2;SDS_P1;SDS_P2;PMS_P1;PMS_P2;Temp;Humidity;BMP_temperature;BMP_pressure;BME280_temperature;BME280_humidity;BME280_pressure;Samples;Min_cycle;Max_cycle;Signal;HPM_P1;HPM_P2
2023/05/16 00:01:46;;;;;;;25.38;11.55;;;;;;;13.96;79.23;93638.09;4985152;28;20101;-87
2023/05/16 00:04:11;;;;;;;17.48;11.57;;;;;;;13.94;79.13;93645.69;4984888;28;20054;-87
2023/05/16 00:06:37;;;;;;;15.63;10.95;;;;;;;13.92;79.27;93630.00;4985176;28;20023;-88
2023/05/16 00:09:02;;;;;;;17.98;11.25;;;;;;;13.93;79.28;93642.25;4967628;28;20023;-88
2023/05/16 00:11:28;;;;;;;22.55;11.70;;;;;;;13.91;79.33;93635.69;4984029;28;20212;-84
2023/05/16 00:13:53;;;;;;;24.15;12.20;;;;;;;13.92;79.47;93627.31;4984429;28;20034;-84
2023/05/16 00:16:20;;;;;;;19.50;12.25;;;;;;;13.94;79.31;93621.59;4984379;28;20105;-84
2023/05/16 00:18:46;;;;;;;28.60;11.75;;;;;;;13.95;79.35;93625.84;4967209;28;20110;-86
2023/05/16 00:21:12;;;;;;;22.50;12.82;;;;;;;13.92;79.51;93621.94;4984536;28;20025;-85
2023/05/16 00:23:37;;;;;;;18.90;11.82;;;;;;;13.91;79.48;93630.31;4984312;28;20022;-88
2023/05/16 00:26:03;;;;;;;19.80;11.48;;;;;;;13.92;79.51;93629.19;4984641;28;20019;-86
2023/05/16 00:28:29;;;;;;;22.42;11.85;;;;;;;13.91;79.45;93622.28;4983971;28;20026;-84
2023/05/16 00:30:54;;;;;;;19.20;12.52;;;;;;;13.90;79.63;93623.38;4983526;28;20082;-83
2023/05/16 00:33:20;;;;;;;19.05;12.38;;;;;;;13.92;79.59;93621.16;4984043;28;20374;-84
2023/05/16 00:35:46;;;;;;;18.70;12.43;;;;;;;13.89;79.65;93611.91;4984066;28;20042;-85
2023/05/16 00:38:11;;;;;;;20.00;11.70;;;;;;;13.89;79.51;93613.81;4984095;28;20033;-85
2023/05/16 00:40:37;;;;;;;21.65;13.38;;;;;;;13.90;79.49;93607.31;4966662;28;20229;-84
2023/05/16 00:43:03;;;;;;;22.23;12.70;;;;;;;13.89;79.46;93605.78;4983849;28;20205;-85
2023/05/16 00:45:28;;;;;;;26.35;13.60;;;;;;;13.88;79.38;93591.59;4983870;28;20065;-85
2023/05/16 00:47:54;;;;;;;23.48;12.60;;;;;;;13.87;79.61;93595.38;4984018;28;20018;-86
2023/05/16 00:50:20;;;;;;;21.15;12.13;;;;;;;13.87;79.49;93584.66;4966705;28;20026;-86
2023/05/16 00:52:45;;;;;;;19.17;12.85;;;;;;;13.90;79.31;93581.31;4966585;28;20047;-84
2023/05/16 00:55:12;;;;;;;19.50;11.98;;;;;;;13.91;79.36;93582.09;4983876;28;20193;-83
2023/05/16 00:57:37;;;;;;;25.33;12.90;;;;;;;13.89;79.18;93578.97;4966557;28;20099;-84
2023/05/16 01:00:10;;;;;;;26.88;11.40;;;;;;;13.87;79.46;93589.25;4983969;28;20057;-84
2023/05/16 01:02:36;;;;;;;24.52;12.27;;;;;;;13.84;79.47;93567.38;4983923;28;20022;-84
2023/05/16 01:05:07;;;;;;;23.15;11.55;;;;;;;13.81;79.53;93576.09;4983663;28;20018;-87
2023/05/16 01:07:33;;;;;;;19.88;11.15;;;;;;;13.83;79.41;93575.75;4983739;28;20094;-87
2023/05/16 01:09:59;;;;;;;19.63;11.90;;;;;;;13.83;79.72;93581.88;4983995;28;20018;-87
2023/05/16 01:12:37;;;;;;;18.90;11.32;;;;;;;13.87;79.60;93567.81;4966623;28;20034;-87
2023/05/16 01:15:18;;;;;;;20.98;12.60;;;;;;;13.85;79.85;93579.66;4983728;28;20236;-85
2023/05/16 01:18:02;;;;;;;18.92;12.70;;;;;;;13.84;79.84;93571.97;4966536;28;20027;-85
2023/05/16 01:20:48;;;;;;;20.08;11.10;;;;;;;13.81;79.98;93570.72;4983857;28;20027;-86
2023/05/16 01:23:31;;;;;;;21.35;12.88;;;;;;;13.80;80.57;93574.53;4985842;28;20081;-86
2023/05/16 01:26:04;;;;;;;28.73;13.45;;;;;;;13.80;80.35;93571.88;4987925;28;20054;-86
2023/05/16 01:28:31;;;;;;;22.77;13.00;;;;;;;13.77;80.33;93567.16;4970227;28;20030;-82
2023/05/16 01:30:56;;;;;;;19.50;12.65;;;;;;;13.78;80.40;93560.72;4987263;28;20093;-83
2023/05/16 01:33:21;;;;;;;16.58;12.55;;;;;;;13.81;80.33;93556.56;4969787;28;20027;-82
2023/05/16 01:36:09;;;;;;;18.90;12.75;;;;;;;13.78;80.44;93552.66;4987230;28;20025;-82
2023/05/16 01:38:40;;;;;;;21.15;11.93;;;;;;;13.74;80.57;93542.97;4987310;28;20034;-82
2023/05/16 01:41:26;;;;;;;25.10;12.43;;;;;;;13.73;80.66;93539.50;4987543;28;20029;-87
2023/05/16 01:44:02;;;;;;;18.45;12.60;;;;;;;13.77;80.57;93536.94;4969592;28;20029;-87
2023/05/16 01:46:33;;;;;;;23.50;13.23;;;;;;;13.78;80.56;93533.13;4980514;28;20054;-87
2023/05/16 01:49:39;;;;;;;24.77;12.65;;;;;;;13.79;80.35;93538.16;4987063;28;20217;-87
2023/05/16 01:52:12;;;;;;;18.13;11.82;;;;;;;13.78;80.33;93533.94;4949979;29;20074;-87
2023/05/16 01:54:44;;;;;;;19.30;12.90;;;;;;;13.77;80.17;93524.31;4949671;29;20047;-87
2023/05/16 01:57:10;;;;;;;19.00;11.73;;;;;;;13.77;80.15;93534.25;4977477;28;20110;-87
2023/05/16 01:59:37;;;;;;;17.88;11.75;;;;;;;13.79;80.47;93534.69;4969931;28;20098;-87
2023/05/16 02:02:03;;;;;;;26.58;12.68;;;;;;;13.80;80.49;93530.91;4969871;28;20067;-87
2023/05/16 02:04:29;;;;;;;19.55;12.40;;;;;;;13.81;80.24;93530.53;4986985;28;20281;-87
2023/05/16 02:06:55;;;;;;;20.48;12.13;;;;;;;13.84;80.32;93524.53;4986795;28;20027;-87
2023/05/16 02:09:20;;;;;;;19.23;12.25;;;;;;;13.85;79.86;93523.38;4986601;28;20078;-86
2023/05/16 02:11:46;;;;;;;18.15;11.73;;;;;;;13.87;79.68;93530.31;4969546;28;20046;-85
2023/05/16 02:14:11;;;;;;;19.08;12.48;;;;;;;13.87;79.68;93525.72;4986592;28;20026;-86
2023/05/16 02:16:38;;;;;;;15.98;11.93;;;;;;;13.85;79.39;93526.06;4969532;28;20260;-86
2023/05/16 02:19:04;;;;;;;20.77;12.20;;;;;;;13.87;79.50;93533.00;4986441;28;20034;-82
2023/05/16 02:21:30;;;;;;;21.25;11.40;;;;;;;13.89;79.39;93525.41;4986624;28;20026;-82
2023/05/16 02:23:55;;;;;;;16.92;11.40;;;;;;;13.90;79.43;93521.59;4986137;28;20019;-82
2023/05/16 02:26:21;;;;;;;30.88;12.50;;;;;;;13.88;79.34;93518.47;4986279;28;20143;-82
2023/05/16 02:28:48;;;;;;;20.17;11.27;;;;;;;13.84;79.23;93516.50;4986632;28;20031;-84
2023/05/16 02:31:26;;;;;;;19.10;11.52;;;;;;;13.82;79.25;93521.41;4968976;28;20031;-83
2023/05/16 02:33:52;;;;;;;16.95;10.82;;;;;;;13.80;79.50;93523.66;4985480;28;20042;-83
2023/05/16 02:36:17;;;;;;;18.05;11.85;;;;;;;13.75;79.71;93512.38;4986509;28;20094;-83
2023/05/16 02:38:43;;;;;;;16.20;10.65;;;;;;;13.76;79.80;93530.81;4985866;28;20221;-83
2023/05/16 02:41:08;;;;;;;17.52;12.02;;;;;;;13.72;80.01;93537.16;4968853;28;20046;-84
2023/05/16 02:43:34;;;;;;;25.52;11.27;;;;;;;13.73;79.95;93533.38;4986203;28;20328;-83
2023/05/16 02:46:00;;;;;;;21.15;11.50;;;;;;;13.73;80.16;93534.16;4985879;28;20343;-84
2023/05/16 02:48:25;;;;;;;18.25;11.77;;;;;;;13.72;79.91;93529.94;4985964;28;20027;-84
2023/05/16 02:50:51;;;;;;;20.80;11.90;;;;;;;13.74;80.11;93519.66;4986047;28;20202;-84
2023/05/16 02:53:16;;;;;;;15.13;11.27;;;;;;;13.72;79.96;93513.06;4968477;28;20080;-84
2023/05/16 02:55:42;;;;;;;21.25;12.98;;;;;;;13.74;79.71;93524.22;4986136;28;20023;-84
2023/05/16 02:58:07;;;;;;;18.48;12.07;;;;;;;13.75;79.52;93513.16;4985693;28;20217;-84
2023/05/16 03:00:33;;;;;;;20.92;12.85;;;;;;;13.73;79.71;93510.03;4985862;28;20019;-83
2023/05/16 03:02:58;;;;;;;19.00;11.43;;;;;;;13.74;79.37;93519.66;4985877;28;20015;-80
2023/05/16 03:05:24;;;;;;;20.10;11.02;;;;;;;13.74;79.57;93518.84;4985759;28;20017;-80
2023/05/16 03:07:50;;;;;;;20.98;11.65;;;;;;;13.73;79.71;93518.06;4985704;28;20025;-80
2023/05/16 03:10:15;;;;;;;16.92;11.05;;;;;;;13.73;79.69;93504.69;4985833;28;20114;-80
2023/05/16 03:12:41;;;;;;;17.30;11.25;;;;;;;13.76;79.63;93511.25;4985234;28;20355;-80
2023/05/16 03:15:08;;;;;;;15.85;11.38;;;;;;;13.76;79.53;93512.06;4985482;28;20034;-80
2023/05/16 03:17:33;;;;;;;17.75;12.18;;;;;;;13.78;79.35;93515.16;4985697;28;20022;-80
2023/05/16 03:19:59;;;;;;;21.63;11.30;;;;;;;13.79;79.28;93511.34;4985020;28;20278;-80
2023/05/16 03:22:24;;;;;;;21.75;12.55;;;;;;;13.78;79.61;93506.34;4985247;28;20062;-84
2023/05/16 03:24:49;;;;;;;19.10;11.43;;;;;;;13.78;79.54;93517.06;4985158;28;20066;-84
2023/05/16 03:27:15;;;;;;;15.48;11.05;;;;;;;13.79;79.79;93511.34;4985015;28;20023;-84
2023/05/16 03:29:41;;;;;;;18.83;11.07;;;;;;;13.80;79.76;93517.53;4985245;28;20026;-83
2023/05/16 03:32:06;;;;;;;15.70;11.30;;;;;;;13.77;79.97;93508.25;4984888;28;20026;-84
2023/05/16 03:34:32;;;;;;;15.75;10.40;;;;;;;13.74;79.80;93506.25;4985206;28;20095;-85
2023/05/16 03:36:57;;;;;;;18.88;11.70;;;;;;;13.75;79.88;93499.00;4985059;28;20054;-83
2023/05/16 03:39:23;;;;;;;17.85;11.20;;;;;;;13.75;79.93;93501.69;4985236;28;20027;-84
2023/05/16 03:41:48;;;;;;;20.25;11.10;;;;;;;13.76;79.95;93505.91;4985337;28;20089;-85
2023/05/16 03:44:14;;;;;;;24.17;12.77;;;;;;;13.74;79.84;93498.22;4984626;28;20098;-84
2023/05/16 03:46:39;;;;;;;24.98;12.10;;;;;;;13.76;80.05;93508.56;4983607;28;20101;-84
2023/05/16 03:49:05;;;;;;;21.42;11.05;;;;;;;13.75;80.07;93502.44;4985155;28;20038;-84
2023/05/16 03:51:30;;;;;;;26.48;11.93;;;;;;;13.78;79.88;93509.00;4966941;28;20022;-83
2023/05/16 03:53:56;;;;;;;19.27;11.15;;;;;;;13.79;79.86;93508.69;4984521;28;20490;-85
2023/05/16 03:56:22;;;;;;;24.92;11.57;;;;;;;13.82;79.98;93499.22;4984296;28;20030;-86
2023/05/16 03:58:47;;;;;;;24.05;10.88;;;;;;;13.84;79.86;93505.78;4967138;28;20097;-84
2023/05/16 04:01:13;;;;;;;23.45;11.35;;;;;;;13.89;79.71;93504.75;4984802;28;20402;-82
2023/05/16 04:03:39;;;;;;;28.45;11.80;;;;;;;13.87;79.57;93498.94;4984788;28;20042;-83
2023/05/16 04:06:07;;;;;;;31.88;12.65;;;;;;;13.89;79.44;93493.25;4984818;28;20045;-83
2023/05/16 04:08:32;;;;;;;19.52;11.18;;;;;;;13.89;79.39;93503.97;4984570;28;20037;-82
2023/05/16 04:10:58;;;;;;;19.65;11.70;;;;;;;13.90;79.44;93511.66;4984188;28;20038;-83
2023/05/16 04:13:24;;;;;;;22.67;12.52;;;;;;;13.92;79.21;93505.94;4984306;28;20329;-85
2023/05/16 04:15:50;;;;;;;23.88;11.15;;;;;;;13.92;79.32;93512.09;4984724;28;20376;-84
2023/05/16 04:18:15;;;;;;;20.23;11.52;;;;;;;13.96;79.34;93506.81;4984518;28;20098;-86
2023/05/16 04:20:42;;;;;;;19.33;12.98;;;;;;;13.94;78.93;93511.75;4984970;28;20323;-85
2023/05/16 04:23:10;;;;;;;23.25;12.93;;;;;;;13.94;78.99;93517.91;4984572;28;20080;-85
2023/05/16 04:25:36;;;;;;;20.70;12.90;;;;;;;13.97;78.83;93521.78;4984530;28;20026;-86
2023/05/16 04:28:02;;;;;;;18.98;11.45;;;;;;;14.01;78.52;93509.25;4984239;28;20101;-85
2023/05/16 04:30:27;;;;;;;20.33;10.93;;;;;;;14.05;78.50;93502.09;4983985;28;20019;-85
2023/05/16 04:32:53;;;;;;;19.65;11.77;;;;;;;14.06;78.24;93495.59;4982817;28;20066;-84
2023/05/16 04:35:18;;;;;;;20.10;12.27;;;;;;;14.05;78.25;93494.06;4983381;28;20045;-85
2023/05/16 04:37:44;;;;;;;22.45;12.02;;;;;;;14.04;78.29;93489.81;4983809;28;20025;-85
2023/05/16 04:40:11;;;;;;;22.95;13.18;;;;;;;14.07;78.13;93499.84;4984219;28;20046;-84
2023/05/16 04:42:37;;;;;;;20.25;13.18;;;;;;;14.04;78.33;93484.44;4984156;28;20066;-85
2023/05/16 04:45:05;;;;;;;25.52;12.98;;;;;;;14.09;78.36;93492.25;4984409;28;20248;-85
2023/05/16 04:47:31;;;;;;;26.40;12.38;;;;;;;14.17;78.67;93498.56;4966593;28;20023;-85
2023/05/16 04:49:56;;;;;;;25.38;12.77;;;;;;;14.20;78.72;93495.97;4984088;28;20356;-85
2023/05/16 04:52:22;;;;;;;23.90;14.02;;;;;;;14.25;78.55;93501.09;4966084;28;20019;-83
2023/05/16 04:54:51;;;;;;;22.75;13.38;;;;;;;14.27;78.49;93482.00;4983934;28;20050;-83
2023/05/16 04:57:16;;;;;;;24.92;12.02;;;;;;;14.31;78.38;93490.91;4983356;28;20022;-85
2023/05/16 04:59:45;;;;;;;15.38;10.93;;;;;;;14.36;77.61;93482.59;4984521;28;20023;-86
2023/05/16 05:02:10;;;;;;;21.52;12.45;;;;;;;14.39;77.24;93492.63;4984239;28;20022;-86
2023/05/16 05:04:36;;;;;;;21.02;12.85;;;;;;;14.42;77.12;93488.47;4984660;28;20010;-86
2023/05/16 05:07:02;;;;;;;17.52;12.05;;;;;;;14.44;76.99;93491.59;4983948;28;20026;-79
2023/05/16 05:09:28;;;;;;;17.90;12.07;;;;;;;14.44;76.84;93491.59;4983408;28;20018;-79
2023/05/16 05:11:53;;;;;;;19.50;11.75;;;;;;;14.45;77.00;93506.56;4983541;28;20050;-79
2023/05/16 05:14:19;;;;;;;23.67;13.45;;;;;;;14.45;76.57;93506.56;4983568;28;20026;-79
2023/05/16 05:16:44;;;;;;;23.88;11.52;;;;;;;14.42;76.78;93499.97;4983372;28;20070;-80
2023/05/16 05:19:10;;;;;;;26.45;11.82;;;;;;;14.44;76.60;93499.63;4983694;28;20022;-80
2023/05/16 05:21:35;;;;;;;28.00;12.32;;;;;;;14.43;77.18;93500.75;4966535;28;20022;-80
2023/05/16 05:24:01;;;;;;;23.00;11.77;;;;;;;14.45;76.73;93493.94;4983469;28;20034;-80
2023/05/16 05:26:27;;;;;;;16.08;10.65;;;;;;;14.47;76.28;93501.63;4983379;28;20019;-80
2023/05/16 05:28:53;;;;;;;33.33;12.50;;;;;;;14.48;75.92;93497.81;4983573;28;20198;-81
2023/05/16 05:31:19;;;;;;;23.15;11.73;;;;;;;14.46;76.32;93481.28;4983382;28;20061;-86
2023/05/16 05:33:44;;;;;;;24.90;12.35;;;;;;;14.51;76.26;93474.88;4983650;28;20034;-86
2023/05/16 05:36:10;;;;;;;43.30;17.80;;;;;;;14.52;76.81;93476.47;4983687;28;20048;-87
2023/05/16 05:38:35;;;;;;;27.08;11.43;;;;;;;14.53;76.52;93481.47;4967356;28;20098;-87
2023/05/16 05:41:01;;;;;;;24.55;12.60;;;;;;;14.51;76.51;93470.31;4966970;28;20019;-87
2023/05/16 05:43:27;;;;;;;19.15;11.45;;;;;;;14.52;76.23;93463.81;4983971;28;20031;-86
2023/05/16 05:45:53;;;;;;;26.15;10.93;;;;;;;14.51;75.69;93459.59;4983704;28;20023;-88
2023/05/16 05:48:18;;;;;;;20.83;11.68;;;;;;;14.55;75.79;93463.13;4975228;28;20351;-87
2023/05/16 05:50:47;;;;;;;21.92;11.73;;;;;;;14.55;75.44;93449.72;4983347;28;20020;-86
2023/05/16 05:53:12;;;;;;;25.40;10.55;;;;;;;14.55;75.37;93448.94;4983365;28;20039;-87
2023/05/16 05:55:40;;;;;;;30.00;11.13;;;;;;;14.55;75.32;93447.03;4983711;28;20037;-86
2023/05/16 05:58:06;;;;;;;24.70;11.82;;;;;;;14.56;75.37;93448.63;4965995;28;20022;-86
2023/05/16 06:00:31;;;;;;;18.40;9.90;;;;;;;14.54;75.48;93448.16;4966072;28;20045;-86
2023/05/16 06:03:03;;;;;;;19.65;11.48;;;;;;;14.53;75.52;93440.44;4983390;28;20035;-86
2023/05/16 06:05:28;;;;;;;21.88;11.45;;;;;;;14.52;75.84;93450.41;4983158;28;20022;-84
2023/05/16 06:07:54;;;;;;;23.23;11.35;;;;;;;14.53;75.16;93437.78;4983388;28;20107;-86
2023/05/16 06:10:20;;;;;;;23.23;10.55;;;;;;;14.58;75.00;93449.03;4985335;28;20101;-86
2023/05/16 06:12:45;;;;;;;17.90;10.02;;;;;;;14.56;75.11;93451.31;4987146;28;20027;-88
2023/05/16 06:15:11;;;;;;;17.95;9.48;;;;;;;14.63;74.92;93456.03;4969808;28;20019;-86
2023/05/16 06:17:37;;;;;;;28.55;9.98;;;;;;;14.64;74.96;93458.38;4987369;28;20026;-86
2023/05/16 06:20:03;;;;;;;25.42;10.13;;;;;;;14.72;74.42;93458.56;4987185;28;20026;-84
2023/05/16 06:22:29;;;;;;;26.25;10.48;;;;;;;14.78;74.19;93457.94;4986448;28;20027;-84
2023/05/16 06:24:54;;;;;;;20.50;10.75;;;;;;;14.81;74.17;93464.50;4986329;28;20101;-84
2023/05/16 06:27:20;;;;;;;16.88;10.18;;;;;;;14.79;74.21;93462.16;4986043;28;20236;-85
2023/05/16 06:29:45;;;;;;;18.83;9.45;;;;;;;14.83;74.18;93460.34;4985862;28;20046;-85
2023/05/16 06:32:11;;;;;;;22.40;9.63;;;;;;;14.87;74.09;93448.91;4969006;28;20027;-86
2023/05/16 06:34:37;;;;;;;28.17;9.95;;;;;;;14.90;74.32;93446.31;4986373;28;20053;-85
2023/05/16 06:37:02;;;;;;;16.80;10.15;;;;;;;14.89;73.72;93439.38;4986535;28;20054;-85
2023/05/16 06:39:28;;;;;;;20.00;8.25;;;;;;;14.85;74.12;93425.13;4986346;28;20050;-86
2023/05/16 06:41:54;;;;;;;25.80;9.18;;;;;;;14.84;74.25;93423.56;4986205;28;20030;-85
2023/05/16 06:44:19;;;;;;;19.75;8.90;;;;;;;14.88;74.60;93424.44;4986334;28;20023;-84
2023/05/16 06:46:45;;;;;;;20.73;9.35;;;;;;;14.87;74.58;93411.34;4985996;28;20098;-79
2023/05/16 06:49:10;;;;;;;15.23;7.93;;;;;;;15.04;78.01;93417.13;4985958;28;20069;-75
2023/05/16 06:51:36;;;;;;;15.52;8.13;;;;;;;15.22;76.46;93395.22;4968666;28;20026;-76
2023/05/16 06:54:04;;;;;;;14.85;8.82;;;;;;;15.40;76.24;93417.81;4954385;28;20067;-77
2023/05/16 06:56:30;;;;;;;22.73;8.52;;;;;;;15.56;74.06;93400.84;4966230;29;20325;-76
2023/05/16 06:58:55;;;;;;;22.92;7.93;;;;;;;15.72;73.21;93401.56;4965996;29;20042;-77
2023/05/16 07:01:21;;;;;;;20.73;8.80;;;;;;;15.91;72.32;93397.28;4966323;29;20027;-77
2023/05/16 07:03:46;;;;;;;31.60;8.93;;;;;;;16.09;71.71;93395.69;4965911;29;20318;-76
2023/05/16 07:06:12;;;;;;;22.33;8.35;;;;;;;16.20;70.26;93398.53;4949098;29;20067;-83
2023/05/16 07:08:37;;;;;;;28.20;9.98;;;;;;;16.33;70.24;93396.47;4965999;29;20198;-80
2023/05/16 07:11:03;;;;;;;16.70;6.90;;;;;;;16.36;67.93;93395.72;4966278;29;20098;-80
2023/05/16 07:13:28;;;;;;;14.77;6.78;;;;;;;16.41;67.87;93398.13;4966204;29;20027;-81
2023/05/16 07:15:54;;;;;;;18.27;7.03;;;;;;;16.39;67.31;93397.72;4964777;29;20078;-82
2023/05/16 07:18:19;;;;;;;22.10;7.30;;;;;;;16.36;67.08;93401.09;4949331;29;20218;-85
2023/05/16 07:20:45;;;;;;;18.05;6.32;;;;;;;16.37;66.68;93381.16;4949526;29;20213;-84
2023/05/16 07:23:10;;;;;;;13.75;6.35;;;;;;;16.41;66.41;93376.59;4949782;29;20048;-84
2023/05/16 07:25:37;;;;;;;11.27;6.72;;;;;;;16.42;66.62;93370.06;4966921;29;20027;-88
2023/05/16 07:28:02;;;;;;;29.02;6.70;;;;;;;16.46;66.63;93373.59;4967013;29;20098;-85
2023/05/16 07:30:28;;;;;;;16.40;7.15;;;;;;;16.47;66.79;93377.84;4949262;29;20027;-82
2023/05/16 07:32:53;;;;;;;13.25;6.45;;;;;;;16.41;66.95;93372.00;4966205;29;20321;-83
2023/05/16 07:35:19;;;;;;;22.38;6.75;;;;;;;16.38;67.09;93380.00;4949248;29;20054;-82
2023/05/16 07:37:45;;;;;;;25.42;8.27;;;;;;;16.36;67.46;93395.72;4966197;29;20023;-84
2023/05/16 07:40:11;;;;;;;31.42;8.05;;;;;;;16.35;67.45;93386.13;4966344;29;20320;-86
2023/05/16 07:42:36;;;;;;;23.75;7.38;;;;;;;16.39;67.15;93400.41;4949499;29;20023;-89
2023/05/16 07:45:02;;;;;;;16.70;6.40;;;;;;;16.41;66.57;93414.25;4966359;29;20023;-89
2023/05/16 07:47:27;;;;;;;12.93;6.80;;;;;;;16.45;66.37;93415.09;4966575;29;20241;-82
2023/05/16 07:49:53;;;;;;;16.33;7.55;;;;;;;16.48;66.75;93395.53;4965979;29;20070;-80
2023/05/16 07:52:19;;;;;;;13.07;7.05;;;;;;;16.57;66.08;93406.81;4965718;29;20034;-78
2023/05/16 07:54:46;;;;;;;16.50;7.72;;;;;;;16.59;65.97;93409.94;5003776;28;20065;-83
2023/05/16 07:57:13;;;;;;;17.15;7.43;;;;;;;16.70;65.71;93404.69;5004351;28;20029;-83
2023/05/16 07:59:39;;;;;;;21.67;7.32;;;;;;;16.77;65.42;93387.88;5004647;28;20026;-82
2023/05/16 08:02:07;;;;;;;29.52;8.50;;;;;;;16.83;65.29;93391.81;5004417;28;20026;-83
2023/05/16 08:04:32;;;;;;;24.17;9.27;;;;;;;16.92;65.30;93395.03;5004612;28;20249;-80
2023/05/16 08:06:58;;;;;;;15.55;7.72;;;;;;;16.95;64.41;93388.16;5004098;28;20252;-79
2023/05/16 08:09:23;;;;;;;38.38;7.20;;;;;;;17.05;63.61;93393.66;5004266;28;20313;-79
2023/05/16 08:11:49;;;;;;;16.08;6.20;;;;;;;17.20;62.54;93377.72;5004098;28;20269;-81
2023/05/16 08:14:14;;;;;;;16.77;7.55;;;;;;;17.28;62.14;93382.03;5003802;28;20049;-80
2023/05/16 08:16:40;;;;;;;12.95;7.50;;;;;;;17.36;62.35;93369.41;5003915;28;20022;-80
2023/05/16 08:19:06;;;;;;;19.00;6.57;;;;;;;17.50;60.92;93368.81;4986542;28;20311;-81
2023/05/16 08:21:31;;;;;;;20.23;7.03;;;;;;;17.61;61.14;93358.94;5003644;28;20034;-82
2023/05/16 08:23:57;;;;;;;16.35;6.97;;;;;;;17.69;60.30;93363.25;5004004;28;20026;-86
2023/05/16 08:26:23;;;;;;;22.20;7.13;;;;;;;17.79;59.96;93359.13;5004732;28;20089;-85
2023/05/16 08:28:49;;;;;;;24.42;6.88;;;;;;;17.89;59.63;93357.66;5004646;28;20022;-85
2023/05/16 08:31:15;;;;;;;24.60;7.32;;;;;;;17.99;59.61;93352.41;5003915;28;20083;-85
2023/05/16 08:33:40;;;;;;;16.98;6.60;;;;;;;18.09;59.41;93359.00;5003821;28;20035;-84
2023/05/16 08:36:06;;;;;;;16.08;6.65;;;;;;;18.06;59.34;93343.59;5004385;28;20324;-83
2023/05/16 08:38:32;;;;;;;19.92;7.38;;;;;;;18.14;59.64;93353.28;5002483;28;20334;-84
2023/05/16 08:40:58;;;;;;;21.05;7.10;;;;;;;18.18;59.29;93346.00;4984642;28;20304;-84
2023/05/16 08:43:25;;;;;;;16.85;6.50;;;;;;;18.24;58.58;93351.81;5003298;28;20284;-84
2023/05/16 08:45:51;;;;;;;18.25;6.18;;;;;;;18.36;58.19;93350.75;5003581;28;20049;-85
2023/05/16 08:48:22;;;;;;;14.23;6.07;;;;;;;18.48;58.24;93342.38;5002823;28;20324;-84
2023/05/16 08:50:47;;;;;;;19.05;5.82;;;;;;;18.59;58.58;93340.50;5002772;28;20026;-84
2023/05/16 08:53:16;;;;;;;18.27;6.13;;;;;;;18.74;57.86;93352.16;5002547;28;20040;-84
2023/05/16 08:55:47;;;;;;;13.95;5.60;;;;;;;18.90;58.01;93351.88;5002038;28;20367;-84
2023/05/16 08:58:13;;;;;;;21.05;6.00;;;;;;;18.99;58.18;93355.03;5000509;28;20023;-84
2023/05/16 09:00:39;;;;;;;14.00;5.50;;;;;;;19.11;57.17;93353.16;5000598;28;20007;-84
2023/05/16 09:03:08;;;;;;;19.38;6.47;;;;;;;19.18;56.52;93350.50;4983381;28;20027;-84
2023/05/16 09:05:34;;;;;;;20.55;6.70;;;;;;;19.35;56.14;93357.88;5000734;28;20323;-84
2023/05/16 09:07:59;;;;;;;23.00;5.68;;;;;;;19.40;56.11;93365.63;5000772;28;20034;-84
2023/05/16 09:10:26;;;;;;;9.15;5.72;;;;;;;19.46;56.12;93366.03;5000681;28;20029;-84
2023/05/16 09:12:51;;;;;;;17.17;7.43;;;;;;;19.51;56.25;93348.66;5001468;28;20050;-83
2023/05/16 09:15:20;;;;;;;11.23;5.40;;;;;;;19.57;55.65;93358.72;5002240;28;20061;-84
2023/05/16 09:17:46;;;;;;;13.45;5.57;;;;;;;19.59;56.05;93377.28;5003347;28;20335;-84
2023/05/16 09:20:16;;;;;;;12.15;5.47;;;;;;;19.65;56.11;93375.75;5003265;28;20089;-83
2023/05/16 09:22:55;;;;;;;21.63;6.43;;;;;;;19.68;55.35;93372.25;4986051;28;20026;-87
2023/05/16 09:25:22;;;;;;;12.75;5.60;;;;;;;19.71;55.21;93371.53;5004085;28;20197;-86
2023/05/16 09:27:55;;;;;;;17.00;6.28;;;;;;;19.70;55.27;93369.97;5003896;28;20034;-87
2023/05/16 09:30:28;;;;;;;14.32;6.40;;;;;;;19.63;55.97;93369.94;5004028;28;20049;-88
2023/05/16 09:32:54;;;;;;;25.17;7.85;;;;;;;19.59;55.31;93364.53;5004078;28;20057;-86
2023/05/16 09:35:20;;;;;;;14.50;6.00;;;;;;;19.56;55.22;93367.22;4986735;28;20340;-87
2023/05/16 09:37:51;;;;;;;18.70;6.55;;;;;;;19.61;55.92;93367.63;4986830;28;20064;-86
2023/05/16 09:40:22;;;;;;;10.95;5.93;;;;;;;19.63;55.39;93367.25;5003403;28;20022;-85
2023/05/16 09:43:07;;;;;;;14.38;6.10;;;;;;;19.59;55.56;93361.81;5003145;28;20025;-88
2023/05/16 09:45:33;;;;;;;13.00;6.25;;;;;;;19.59;55.64;93364.53;5008923;28;20030;-88
2023/05/16 09:48:07;;;;;;;16.90;5.80;;;;;;;19.51;56.10;93367.59;5007830;28;20031;-89
2023/05/16 09:50:36;;;;;;;10.98;5.70;;;;;;;19.50;56.06;93368.72;5007943;28;20370;-91
2023/05/16 09:53:03;;;;;;;15.27;7.38;;;;;;;19.53;55.69;93373.38;5007972;28;20045;-89
2023/05/16 09:55:29;;;;;;;14.50;6.20;;;;;;;19.48;55.84;93374.53;5006887;28;20030;-85
2023/05/16 09:57:55;;;;;;;15.73;7.00;;;;;;;19.48;55.88;93368.34;5006860;28;20135;-85
2023/05/16 10:00:20;;;;;;;16.83;6.78;;;;;;;19.53;56.34;93359.88;5006870;28;20263;-84
2023/05/16 10:02:48;;;;;;;15.90;6.18;;;;;;;19.51;56.11;93373.75;5006984;28;20343;-88
2023/05/16 10:05:15;;;;;;;17.42;6.65;;;;;;;19.53;56.30;93370.69;5007835;28;20057;-86
2023/05/16 10:07:41;;;;;;;13.95;6.80;;;;;;;19.53;57.10;93371.44;5006554;28;20082;-80
2023/05/16 10:10:08;;;;;;;16.05;7.55;;;;;;;19.64;56.67;93376.88;5006788;28;20048;-85
2023/05/16 10:12:35;;;;;;;10.55;5.88;;;;;;;19.67;57.04;93367.25;5006900;28;20048;-84
2023/05/16 10:15:03;;;;;;;23.02;6.13;;;;;;;19.79;56.08;93364.22;4989204;28;20343;-87
2023/05/16 10:17:35;;;;;;;14.38;5.88;;;;;;;19.93;55.36;93363.47;5006621;28;20022;-84
2023/05/16 10:20:04;;;;;;;11.70;5.85;;;;;;;19.88;55.87;93374.66;5006393;28;20019;-87
2023/05/16 10:22:35;;;;;;;11.70;5.85;;;;;;;19.89;55.86;93360.00;4989475;28;20026;-88
2023/05/16 10:25:19;;;;;;;15.40;5.97;;;;;;;19.98;55.80;93366.56;5006586;28;20014;-85
2023/05/16 10:27:48;;;;;;;25.10;6.63;;;;;;;20.00;56.21;93358.06;5006476;28;20049;-85
2023/05/16 10:30:14;;;;;;;19.15;6.70;;;;;;;20.02;55.73;93371.97;5006203;28;20065;-87
2023/05/16 10:32:41;;;;;;;22.48;6.60;;;;;;;20.13;55.74;93361.97;5006345;28;20022;-82
2023/05/16 10:35:07;;;;;;;12.90;6.68;;;;;;;20.17;56.01;93362.72;5005825;28;20054;-83
2023/05/16 10:37:35;;;;;;;16.65;6.78;;;;;;;20.16;54.81;93349.59;4988728;28;20021;-84
2023/05/16 10:40:04;;;;;;;17.23;6.68;;;;;;;20.21;54.93;93352.69;5006226;28;20022;-83
2023/05/16 10:42:33;;;;;;;28.05;7.53;;;;;;;20.26;54.78;93331.81;5006135;28;20026;-86
2023/05/16 10:45:19;;;;;;;20.63;6.88;;;;;;;20.34;55.10;93333.34;5005673;28;20093;-82
2023/05/16 10:47:56;;;;;;;20.15;6.53;;;;;;;20.48;55.33;93336.06;5005949;28;20228;-83
2023/05/16 10:50:44;;;;;;;13.65;6.75;;;;;;;20.61;54.46;93337.22;4988769;28;20264;-85
2023/05/16 10:53:22;;;;;;;19.80;8.27;;;;;;;20.88;54.05;93323.22;4989202;28;20054;-87
2023/05/16 10:56:10;;;;;;;16.92;6.43;;;;;;;21.07;52.76;93329.38;5006581;28;20072;-85
2023/05/16 10:58:39;;;;;;;21.77;6.50;;;;;;;21.26;53.43;93323.50;5006470;28;20038;-87
2023/05/16 11:01:16;;;;;;;16.52;6.88;;;;;;;21.51;51.88;93336.19;5006283;28;20092;-84
2023/05/16 11:03:56;;;;;;;19.17;5.95;;;;;;;21.54;51.83;93325.31;5005502;28;20030;-86
2023/05/16 11:06:23;;;;;;;16.42;6.32;;;;;;;21.58;50.94;93336.16;5005752;28;20105;-84
2023/05/16 11:09:08;;;;;;;9.68;5.85;;;;;;;21.55;50.67;93343.13;5006628;28;20029;-88
2023/05/16 11:11:52;;;;;;;27.42;7.13;;;;;;;21.42;51.24;93344.72;5007413;28;20037;-89
2023/05/16 11:14:28;;;;;;;19.42;6.70;;;;;;;21.29;51.58;93355.25;5005352;28;20026;-86
2023/05/16 11:17:20;;;;;;;17.92;6.75;;;;;;;21.29;51.46;93357.94;4987901;28;20347;-87
2023/05/16 11:19:53;;;;;;;19.37;5.63;;;;;;;21.37;51.63;93364.09;5005936;28;20030;-87
2023/05/16 11:22:20;;;;;;;16.67;6.07;;;;;;;21.37;51.12;93364.88;4988554;28;20266;-85
2023/05/16 11:25:13;;;;;;;;;;;;;;;;;;;;;